createdAt,value
2017-08-04T00:00:57.490Z,19.77
2017-08-04T00:01:57.424Z,19.77
2017-08-04T00:02:57.435Z,19.77
2017-08-04T00:03:57.431Z,19.76
2017-08-04T00:04:57.437Z,19.76
2017-08-04T00:05:57.456Z,19.75
2017-08-04T00:06:57.482Z,19.76
2017-08-04T00:07:57.457Z,19.74
2017-08-04T00:08:57.444Z,19.75
2017-08-04T00:09:57.457Z,19.76
2017-08-04T00:10:57.457Z,19.76
2017-08-04T00:11:57.482Z,19.76
2017-08-04T00:12:57.458Z,19.76
2017-08-04T00:13:57.458Z,19.75
2017-08-04T00:14:57.463Z,19.75
2017-08-04T00:15:57.465Z,19.73
2017-08-04T00:16:57.468Z,19.74
2017-08-04T00:17:57.523Z,19.74
2017-08-04T00:18:57.476Z,19.74
2017-08-04T00:19:57.476Z,19.74
2017-08-04T00:20:57.480Z,19.74
2017-08-04T00:21:57.484Z,19.75
2017-08-04T00:22:57.488Z,19.74
2017-08-04T00:23:57.485Z,19.72
2017-08-04T00:24:57.512Z,19.72
2017-08-04T00:25:57.497Z,19.73
2017-08-04T00:26:57.496Z,19.70
2017-08-04T00:27:57.518Z,19.71
2017-08-04T00:28:57.520Z,19.71
2017-08-04T00:29:57.505Z,19.71
2017-08-04T00:30:57.508Z,19.70
2017-08-04T00:31:57.514Z,19.72
2017-08-04T00:32:57.549Z,19.73
2017-08-04T00:33:57.567Z,19.73
2017-08-04T00:34:57.527Z,19.74
2017-08-04T00:35:57.519Z,19.75
2017-08-04T00:36:57.524Z,19.76
2017-08-04T00:37:57.529Z,19.76
2017-08-04T00:38:57.529Z,19.75
2017-08-04T00:39:57.532Z,19.76
2017-08-04T00:40:57.535Z,19.76
2017-08-04T00:41:57.538Z,19.74
2017-08-04T00:42:57.563Z,19.72
2017-08-04T00:43:57.577Z,19.72
2017-08-04T00:44:57.550Z,19.72
2017-08-04T00:45:57.562Z,19.71
2017-08-04T00:46:57.564Z,19.71
2017-08-04T00:47:57.570Z,19.72
2017-08-04T00:48:57.573Z,19.75
2017-08-04T00:49:57.563Z,19.78
2017-08-04T00:50:57.584Z,19.80
2017-08-04T00:51:57.568Z,19.84
2017-08-04T00:52:57.575Z,19.85
2017-08-04T00:53:57.578Z,19.88
2017-08-04T00:54:57.588Z,19.87
2017-08-04T00:55:57.596Z,19.87
2017-08-04T00:56:57.588Z,19.87
2017-08-04T00:57:57.593Z,19.86
2017-08-04T00:58:57.603Z,19.85
2017-08-04T00:59:57.667Z,19.83
2017-08-04T01:02:32.024Z,19.79
2017-08-04T01:02:33.506Z,19.76
2017-08-04T01:02:57.599Z,19.76
2017-08-04T01:05:59.875Z,19.73
2017-08-04T01:06:00.994Z,19.70
2017-08-04T01:06:01.702Z,19.67
2017-08-04T01:08:33.110Z,19.65
2017-08-04T01:08:34.164Z,19.63
2017-08-04T01:08:57.614Z,19.62
2017-08-04T01:11:59.888Z,19.60
2017-08-04T01:12:01.182Z,19.59
2017-08-04T01:12:01.893Z,19.58
2017-08-04T01:14:33.139Z,19.56
2017-08-04T01:14:34.316Z,19.54
2017-08-04T01:14:57.631Z,19.52
2017-08-04T01:18:00.016Z,19.49
2017-08-04T01:18:01.357Z,19.46
2017-08-04T01:18:01.961Z,19.44
2017-08-04T01:20:33.173Z,19.43
2017-08-04T01:20:34.414Z,19.41
2017-08-04T01:20:57.649Z,19.41
2017-08-04T01:23:42.213Z,19.40
2017-08-04T01:23:43.063Z,19.40
2017-08-04T01:23:57.662Z,19.38
2017-08-04T01:26:35.109Z,19.37
2017-08-04T01:26:36.239Z,19.33
2017-08-04T01:26:57.668Z,19.32
2017-08-04T01:29:42.964Z,19.32
2017-08-04T01:29:44.256Z,19.33
2017-08-04T01:29:57.678Z,19.33
2017-08-04T01:32:34.431Z,19.31
2017-08-04T01:32:35.619Z,19.30
2017-08-04T01:32:57.685Z,19.29
2017-08-04T01:35:42.927Z,19.26
2017-08-04T01:35:43.754Z,19.25
2017-08-04T01:35:57.696Z,19.25
2017-08-04T01:38:32.164Z,19.22
2017-08-04T01:38:33.696Z,19.21
2017-08-04T01:38:57.702Z,19.22
2017-08-04T01:41:43.956Z,19.23
2017-08-04T01:41:44.996Z,19.23
2017-08-04T01:41:57.723Z,19.22
2017-08-04T01:44:32.143Z,19.23
2017-08-04T01:44:33.282Z,19.22
2017-08-04T01:44:57.717Z,19.25
2017-08-04T01:47:44.917Z,19.25
2017-08-04T01:47:46.407Z,19.24
2017-08-04T01:47:57.732Z,19.23
2017-08-04T01:50:42.173Z,19.24
2017-08-04T01:50:43.819Z,19.25
2017-08-04T01:50:57.771Z,19.24
2017-08-04T01:53:45.903Z,19.22
2017-08-04T01:53:47.178Z,19.22
2017-08-04T01:53:57.746Z,19.21
2017-08-04T01:56:34.173Z,19.20
2017-08-04T01:56:35.152Z,19.20
2017-08-04T01:56:57.753Z,19.21
2017-08-04T01:59:41.922Z,19.21
2017-08-04T01:59:43.109Z,19.20
2017-08-04T01:59:43.715Z,19.20
2017-08-04T01:59:57.762Z,19.19
2017-08-04T02:00:57.764Z,19.20
2017-08-04T02:01:58.095Z,19.21
2017-08-04T02:02:57.773Z,19.21
2017-08-04T02:03:57.798Z,19.23
2017-08-04T02:04:57.776Z,19.21
2017-08-04T02:05:57.779Z,19.21
2017-08-04T02:06:57.783Z,19.23
2017-08-04T02:07:57.782Z,19.25
2017-08-04T02:08:57.784Z,19.24
2017-08-04T02:09:57.789Z,19.25
2017-08-04T02:10:57.794Z,19.25
2017-08-04T02:11:57.795Z,19.25
2017-08-04T02:12:57.800Z,19.26
2017-08-04T02:13:57.801Z,19.25
2017-08-04T02:14:57.805Z,19.26
2017-08-04T02:15:57.808Z,19.28
2017-08-04T02:16:57.810Z,19.26
2017-08-04T02:17:57.821Z,19.24
2017-08-04T02:18:57.818Z,19.23
2017-08-04T02:19:57.825Z,19.22
2017-08-04T02:20:57.821Z,19.20
2017-08-04T02:21:57.858Z,19.21
2017-08-04T02:22:57.829Z,19.19
2017-08-04T02:23:57.832Z,19.20
2017-08-04T02:24:57.835Z,19.17
2017-08-04T02:25:57.838Z,19.17
2017-08-04T02:26:57.839Z,19.16
2017-08-04T02:27:57.842Z,19.18
2017-08-04T02:28:57.850Z,19.19
2017-08-04T02:29:57.849Z,19.20
2017-08-04T02:30:57.868Z,19.21
2017-08-04T02:31:57.853Z,19.22
2017-08-04T02:32:57.858Z,19.22
2017-08-04T02:33:57.857Z,19.23
2017-08-04T02:34:57.862Z,19.24
2017-08-04T02:35:57.865Z,19.23
2017-08-04T02:36:57.868Z,19.24
2017-08-04T02:37:57.871Z,19.23
2017-08-04T02:38:57.871Z,19.23
2017-08-04T02:39:57.913Z,19.25
2017-08-04T02:40:57.879Z,19.24
2017-08-04T02:41:57.880Z,19.24
2017-08-04T02:42:57.886Z,19.25
2017-08-04T02:43:57.888Z,19.23
2017-08-04T02:44:57.890Z,19.23
2017-08-04T02:45:57.896Z,19.22
2017-08-04T02:46:57.894Z,19.21
2017-08-04T02:47:57.897Z,19.21
2017-08-04T02:48:57.905Z,19.21
2017-08-04T02:49:57.907Z,19.20
2017-08-04T02:50:57.923Z,19.19
2017-08-04T02:51:57.919Z,19.18
2017-08-04T02:52:57.917Z,19.17
2017-08-04T02:53:57.915Z,19.16
2017-08-04T02:54:57.922Z,19.16
2017-08-04T02:55:57.922Z,19.13
2017-08-04T02:56:57.928Z,19.13
2017-08-04T02:57:57.932Z,19.14
2017-08-04T02:58:57.932Z,19.12
2017-08-04T02:59:57.933Z,19.14
2017-08-04T03:00:57.935Z,19.14
2017-08-04T03:01:57.941Z,19.14
2017-08-04T03:02:57.943Z,19.14
2017-08-04T03:03:57.949Z,19.12
2017-08-04T03:04:57.950Z,19.11
2017-08-04T03:05:57.950Z,19.10
2017-08-04T03:06:57.952Z,19.11
2017-08-04T03:07:57.958Z,19.08
2017-08-04T03:08:57.958Z,19.08
2017-08-04T03:09:57.963Z,19.08
2017-08-04T03:10:57.972Z,19.07
2017-08-04T03:11:57.970Z,19.08
2017-08-04T03:12:57.981Z,19.04
2017-08-04T03:13:57.977Z,19.05
2017-08-04T03:14:57.979Z,19.07
2017-08-04T03:15:57.980Z,19.08
2017-08-04T03:16:57.983Z,19.08
2017-08-04T03:17:57.984Z,19.08
2017-08-04T03:18:57.986Z,19.07
2017-08-04T03:19:57.990Z,19.04
2017-08-04T03:20:57.996Z,19.04
2017-08-04T03:21:57.995Z,19.01
2017-08-04T03:22:57.998Z,19.01
2017-08-04T03:23:58.002Z,18.99
2017-08-04T03:24:58.004Z,18.99
2017-08-04T03:25:58.008Z,18.98
2017-08-04T03:26:58.011Z,18.97
2017-08-04T03:27:58.009Z,18.97
2017-08-04T03:28:58.018Z,18.99
2017-08-04T03:29:58.020Z,18.99
2017-08-04T03:30:58.023Z,19.00
2017-08-04T03:31:58.034Z,19.00
2017-08-04T03:32:58.026Z,18.99
2017-08-04T03:33:58.029Z,18.98
2017-08-04T03:34:58.031Z,18.96
2017-08-04T03:35:58.035Z,18.92
2017-08-04T03:36:58.041Z,18.91
2017-08-04T03:37:58.041Z,18.90
2017-08-04T03:38:58.048Z,18.87
2017-08-04T03:39:58.052Z,18.85
2017-08-04T03:40:58.053Z,18.83
2017-08-04T03:41:58.052Z,18.82
2017-08-04T03:42:58.058Z,18.82
2017-08-04T03:43:58.103Z,18.83
2017-08-04T03:44:58.064Z,18.84
2017-08-04T03:45:58.065Z,18.83
2017-08-04T03:46:58.069Z,18.81
2017-08-04T03:49:29.945Z,18.77
2017-08-04T03:49:31.088Z,18.76
2017-08-04T03:49:58.078Z,18.75
2017-08-04T03:50:58.094Z,18.75
2017-08-04T03:51:58.084Z,18.74
2017-08-04T03:52:58.086Z,18.73
2017-08-04T03:53:58.093Z,18.74
2017-08-04T03:54:58.090Z,18.73
2017-08-04T03:55:58.093Z,18.73
2017-08-04T03:56:58.095Z,18.75
2017-08-04T03:57:58.101Z,18.75
2017-08-04T03:58:58.103Z,18.75
2017-08-04T03:59:58.105Z,18.76
2017-08-04T04:00:58.122Z,18.77
2017-08-04T04:01:58.117Z,18.79
2017-08-04T04:02:58.115Z,18.77
2017-08-04T04:03:58.117Z,18.75
2017-08-04T04:04:58.118Z,18.73
2017-08-04T04:05:58.123Z,18.73
2017-08-04T04:06:58.126Z,18.70
2017-08-04T04:07:58.127Z,18.69
2017-08-04T04:08:58.134Z,18.70
2017-08-04T04:09:58.136Z,18.71
2017-08-04T04:10:58.134Z,18.71
2017-08-04T04:11:58.141Z,18.70
2017-08-04T04:12:58.142Z,18.71
2017-08-04T04:13:58.146Z,18.73
2017-08-04T04:14:58.150Z,18.73
2017-08-04T04:15:58.150Z,18.74
2017-08-04T04:16:58.155Z,18.76
2017-08-04T04:17:58.153Z,18.76
2017-08-04T04:18:58.160Z,18.77
2017-08-04T04:19:58.169Z,18.80
2017-08-04T04:20:58.163Z,18.80
2017-08-04T04:21:58.166Z,18.83
2017-08-04T04:22:58.172Z,18.85
2017-08-04T04:23:58.176Z,18.84
2017-08-04T04:24:58.176Z,18.86
2017-08-04T04:25:58.178Z,18.89
2017-08-04T04:26:58.186Z,18.91
2017-08-04T04:27:58.184Z,18.93
2017-08-04T04:28:58.189Z,18.96
2017-08-04T04:29:58.188Z,18.97
2017-08-04T04:30:58.200Z,19.00
2017-08-04T04:31:58.195Z,19.02
2017-08-04T04:32:58.201Z,19.04
2017-08-04T04:33:58.206Z,19.07
2017-08-04T04:34:58.206Z,19.09
2017-08-04T04:35:58.207Z,19.12
2017-08-04T04:36:58.207Z,19.14
2017-08-04T04:37:58.213Z,19.16
2017-08-04T04:38:58.214Z,19.17
2017-08-04T04:39:58.216Z,19.20
2017-08-04T04:40:58.221Z,19.22
2017-08-04T04:41:58.227Z,19.23
2017-08-04T04:42:58.228Z,19.27
2017-08-04T04:43:58.242Z,19.30
2017-08-04T04:44:58.232Z,19.33
2017-08-04T04:45:58.240Z,19.37
2017-08-04T04:46:58.239Z,19.40
2017-08-04T04:47:58.244Z,19.45
2017-08-04T04:48:58.245Z,19.47
2017-08-04T04:49:58.251Z,19.50
2017-08-04T04:50:58.252Z,19.53
2017-08-04T04:51:58.262Z,19.55
2017-08-04T04:52:58.255Z,19.57
2017-08-04T04:53:58.258Z,19.59
2017-08-04T04:54:58.263Z,19.62
2017-08-04T04:55:58.269Z,19.63
2017-08-04T04:56:58.272Z,19.66
2017-08-04T04:57:58.279Z,19.67
2017-08-04T04:58:58.278Z,19.70
2017-08-04T04:59:58.279Z,19.72
2017-08-04T05:00:58.285Z,19.73
2017-08-04T05:01:58.283Z,19.75
2017-08-04T05:02:58.284Z,19.77
2017-08-04T05:03:58.291Z,19.78
2017-08-04T05:04:58.292Z,19.81
2017-08-04T05:05:58.294Z,19.82
2017-08-04T05:06:58.298Z,19.84
2017-08-04T05:07:58.299Z,19.84
2017-08-04T05:08:58.305Z,19.86
2017-08-04T05:09:58.305Z,19.86
2017-08-04T05:10:58.309Z,19.88
2017-08-04T05:11:58.320Z,19.90
2017-08-04T05:12:58.314Z,19.91
2017-08-04T05:13:58.318Z,19.93
2017-08-04T05:14:58.325Z,19.94
2017-08-04T05:15:58.322Z,19.95
2017-08-04T05:16:58.326Z,19.99
2017-08-04T05:17:58.329Z,20.00
2017-08-04T05:18:58.334Z,20.01
2017-08-04T05:19:58.336Z,20.04
2017-08-04T05:20:58.338Z,20.09
2017-08-04T05:21:58.340Z,20.13
2017-08-04T05:22:58.346Z,20.18
2017-08-04T05:23:58.354Z,20.21
2017-08-04T05:24:58.349Z,20.25
2017-08-04T05:25:58.353Z,20.29
2017-08-04T05:26:58.355Z,20.31
2017-08-04T05:27:58.363Z,20.35
2017-08-04T05:28:58.369Z,20.37
2017-08-04T05:29:58.359Z,20.43
2017-08-04T05:30:58.362Z,20.47
2017-08-04T05:31:58.367Z,20.52
2017-08-04T05:32:58.371Z,20.56
2017-08-04T05:33:58.373Z,20.57
2017-08-04T05:34:58.376Z,20.60
2017-08-04T05:35:58.381Z,20.61
2017-08-04T05:36:58.383Z,20.62
2017-08-04T05:37:58.386Z,20.62
2017-08-04T05:38:58.387Z,20.64
2017-08-04T05:39:58.392Z,20.66
2017-08-04T05:40:58.392Z,20.63
2017-08-04T05:41:58.396Z,20.63
2017-08-04T05:42:58.399Z,20.64
2017-08-04T05:43:58.403Z,20.64
2017-08-04T05:44:58.404Z,20.68
2017-08-04T05:45:58.406Z,20.69
2017-08-04T05:46:58.411Z,20.72
2017-08-04T05:47:58.414Z,20.74
2017-08-04T05:48:58.414Z,20.77
2017-08-04T05:49:58.425Z,20.78
2017-08-04T05:50:58.425Z,20.79
2017-08-04T05:51:58.424Z,20.80
2017-08-04T05:52:58.428Z,20.80
2017-08-04T05:53:58.434Z,20.83
2017-08-04T05:54:58.443Z,20.83
2017-08-04T05:55:58.434Z,20.83
2017-08-04T05:56:58.436Z,20.86
2017-08-04T05:57:58.444Z,20.86
2017-08-04T05:58:58.447Z,20.85
2017-08-04T05:59:58.449Z,20.87
2017-08-04T06:00:58.452Z,20.87
2017-08-04T06:01:58.454Z,20.88
2017-08-04T06:02:58.457Z,20.89
2017-08-04T06:03:58.491Z,20.90
2017-08-04T06:04:58.466Z,20.91
2017-08-04T06:05:58.468Z,20.93
2017-08-04T06:06:58.468Z,20.94
2017-08-04T06:07:58.470Z,20.93
2017-08-04T06:08:58.476Z,20.93
2017-08-04T06:09:58.472Z,20.94
2017-08-04T06:10:58.478Z,20.97
2017-08-04T06:11:58.486Z,20.99
2017-08-04T06:12:58.484Z,21.01
2017-08-04T06:13:58.498Z,21.04
2017-08-04T06:14:58.490Z,21.05
2017-08-04T06:15:58.496Z,21.09
2017-08-04T06:16:58.493Z,21.11
2017-08-04T06:17:58.497Z,21.16
2017-08-04T06:18:58.507Z,21.20
2017-08-04T06:19:58.502Z,21.23
2017-08-04T06:20:58.503Z,21.24
2017-08-04T06:21:58.510Z,21.27
2017-08-04T06:22:58.517Z,21.30
2017-08-04T06:23:58.513Z,21.33
2017-08-04T06:24:58.516Z,21.35
2017-08-04T06:25:58.520Z,21.37
2017-08-04T06:26:58.525Z,21.40
2017-08-04T06:27:58.532Z,21.41
2017-08-04T06:28:58.534Z,21.43
2017-08-04T06:29:58.533Z,21.46
2017-08-04T06:30:58.534Z,21.48
2017-08-04T06:31:58.538Z,21.50
2017-08-04T06:32:58.541Z,21.54
2017-08-04T06:33:58.544Z,21.58
2017-08-04T06:34:58.546Z,21.62
2017-08-04T06:35:58.550Z,21.65
2017-08-04T06:36:58.554Z,21.70
2017-08-04T06:37:58.555Z,21.76
2017-08-04T06:38:58.558Z,21.80
2017-08-04T06:39:58.563Z,21.81
2017-08-04T06:40:58.562Z,21.80
2017-08-04T06:41:58.566Z,21.81
2017-08-04T06:42:58.572Z,21.85
2017-08-04T06:43:58.574Z,21.90
2017-08-04T06:44:58.583Z,21.91
2017-08-04T06:45:58.578Z,21.92
2017-08-04T06:46:58.583Z,21.92
2017-08-04T06:47:58.583Z,21.96
2017-08-04T06:48:58.588Z,21.96
2017-08-04T06:49:58.593Z,22.00
2017-08-04T06:50:58.594Z,22.03
2017-08-04T06:51:58.611Z,22.04
2017-08-04T06:52:58.619Z,22.09
2017-08-04T06:53:58.607Z,22.08
2017-08-04T06:54:58.608Z,22.10
2017-08-04T06:55:58.626Z,22.12
2017-08-04T06:56:58.616Z,22.12
2017-08-04T06:57:58.623Z,22.16
2017-08-04T06:58:58.627Z,22.20
2017-08-04T06:59:58.619Z,22.22
2017-08-04T07:00:58.620Z,22.22
2017-08-04T07:01:58.629Z,22.23
2017-08-04T07:02:58.632Z,22.23
2017-08-04T07:03:58.636Z,22.23
2017-08-04T07:04:58.638Z,22.21
2017-08-04T07:05:58.639Z,22.19
2017-08-04T07:06:58.642Z,22.17
2017-08-04T07:07:58.646Z,22.16
2017-08-04T07:08:58.651Z,22.14
2017-08-04T07:09:58.654Z,22.09
2017-08-04T07:10:58.667Z,22.09
2017-08-04T07:11:58.658Z,22.08
2017-08-04T07:12:58.663Z,22.08
2017-08-04T07:13:58.660Z,22.06
2017-08-04T07:14:58.667Z,22.07
2017-08-04T07:15:58.681Z,22.09
2017-08-04T07:16:58.706Z,22.08
2017-08-04T07:17:58.678Z,22.04
2017-08-04T07:18:58.694Z,22.01
2017-08-04T07:19:58.681Z,22.02
2017-08-04T07:20:58.684Z,22.00
2017-08-04T07:21:39.168Z,22.00
2017-08-04T07:22:03.981Z,22.02
2017-08-04T07:22:58.694Z,22.00
2017-08-04T07:23:58.694Z,21.99
2017-08-04T07:24:58.694Z,22.01
2017-08-04T07:25:58.836Z,22.04
2017-08-04T07:26:58.701Z,22.02
2017-08-04T07:27:58.708Z,22.02
2017-08-04T07:28:58.706Z,22.05
2017-08-04T07:29:58.974Z,22.06
2017-08-04T07:30:58.712Z,22.07
2017-08-04T07:32:12.983Z,22.10
2017-08-04T07:32:58.722Z,22.12
2017-08-04T07:33:58.719Z,22.11
2017-08-04T07:34:58.722Z,22.14
2017-08-04T07:35:58.726Z,22.18
2017-08-04T07:36:58.730Z,22.23
2017-08-04T07:37:58.738Z,22.28
2017-08-04T07:38:58.741Z,22.31
2017-08-04T07:39:58.739Z,22.34
2017-08-04T07:40:58.754Z,22.37
2017-08-04T07:41:58.746Z,22.39
2017-08-04T07:42:58.747Z,22.41
2017-08-04T07:43:58.748Z,22.39
2017-08-04T07:44:58.750Z,22.40
2017-08-04T18:27:46.486Z,21.59
2017-08-04T18:28:27.824Z,21.59
2017-08-04T18:28:59.677Z,21.56
2017-08-04T18:30:00.615Z,21.51
2017-08-04T18:31:00.616Z,21.46
2017-08-04T18:32:00.600Z,21.43
2017-08-04T18:33:00.598Z,21.37
2017-08-04T18:34:00.604Z,21.32
2017-08-04T18:35:00.610Z,21.30
2017-08-04T18:36:00.608Z,21.26
2017-08-04T18:37:00.610Z,21.27
2017-08-04T18:38:00.619Z,21.26
2017-08-04T18:39:00.619Z,21.26
2017-08-04T18:40:00.624Z,21.26
2017-08-04T18:41:00.636Z,21.24
2017-08-04T18:42:00.629Z,21.22
2017-08-04T18:43:00.636Z,21.20
2017-08-04T18:44:00.635Z,21.17
2017-08-04T18:45:00.640Z,21.12
2017-08-04T18:46:00.641Z,21.11
2017-08-04T18:47:00.643Z,21.11
2017-08-04T18:48:00.649Z,21.05
2017-08-04T18:49:00.672Z,21.01
2017-08-04T18:50:00.676Z,20.94
2017-08-04T18:51:00.659Z,20.90
2017-08-04T18:52:00.658Z,20.88
2017-08-04T18:53:00.697Z,20.88
2017-08-04T18:54:00.683Z,20.86
2017-08-04T18:55:00.672Z,20.84
2017-08-04T18:56:00.682Z,20.80
2017-08-04T18:57:00.690Z,20.81
2017-08-04T18:58:00.698Z,20.78
2017-08-04T18:59:00.677Z,20.73
2017-08-04T19:00:00.681Z,20.73
2017-08-04T19:01:00.791Z,20.69
2017-08-04T19:02:00.688Z,20.66
2017-08-04T19:03:00.710Z,20.62
2017-08-04T19:04:00.731Z,20.60
2017-08-04T19:05:00.698Z,20.58
2017-08-04T19:06:00.698Z,20.56
2017-08-04T19:07:00.712Z,20.54
2017-08-04T19:08:00.701Z,20.54
2017-08-04T19:09:00.714Z,20.51
2017-08-04T19:10:00.713Z,20.47
2017-08-04T19:11:00.714Z,20.43
2017-08-04T19:12:00.733Z,20.41
2017-08-04T19:13:00.736Z,20.38
2017-08-04T19:14:00.751Z,20.35
2017-08-04T19:15:00.725Z,20.31
2017-08-04T19:16:00.728Z,20.28
2017-08-04T19:17:00.739Z,20.25
2017-08-04T19:18:00.836Z,20.18
2017-08-04T19:19:00.747Z,20.16
2017-08-04T19:20:00.760Z,20.15
2017-08-04T19:21:00.744Z,20.15
2017-08-04T19:22:00.746Z,20.17
2017-08-04T19:23:00.749Z,20.19
2017-08-04T19:24:00.754Z,20.19
2017-08-04T19:25:03.681Z,20.19
2017-08-04T19:26:00.760Z,20.19
2017-08-04T19:27:00.756Z,20.17
2017-08-04T19:28:00.783Z,20.16
2017-08-04T19:29:00.763Z,20.15
2017-08-04T19:30:00.770Z,20.13
2017-08-04T19:31:00.803Z,20.06
2017-08-04T19:32:00.776Z,20.04
2017-08-04T19:33:00.780Z,20.00
2017-08-04T19:34:00.774Z,19.99
2017-08-04T19:35:00.877Z,19.97
2017-08-04T19:36:00.795Z,19.95
2017-08-04T19:37:00.788Z,19.96
2017-08-04T19:38:00.788Z,19.93
2017-08-04T19:39:00.802Z,19.93
2017-08-04T19:40:01.162Z,19.93
2017-08-04T19:41:00.806Z,19.93
2017-08-04T19:42:00.833Z,19.92
2017-08-04T19:43:00.804Z,19.94
2017-08-04T19:44:00.861Z,19.95
2017-08-04T19:45:00.821Z,19.92
2017-08-04T19:46:00.830Z,19.92
2017-08-04T19:47:00.814Z,19.94
2017-08-04T19:48:00.826Z,19.95
2017-08-04T19:49:01.082Z,19.96
2017-08-04T19:50:00.831Z,19.98
2017-08-04T19:51:00.828Z,19.98
2017-08-04T19:52:00.837Z,19.97
2017-08-04T19:53:00.840Z,19.96
2017-08-04T19:54:01.455Z,19.94
2017-08-04T19:55:01.119Z,19.91
2017-08-04T19:56:00.861Z,19.89
2017-08-04T19:57:00.915Z,19.86
2017-08-04T19:58:01.118Z,19.87
2017-08-04T19:59:01.226Z,19.87
2017-08-04T20:00:00.941Z,19.87
2017-08-04T20:01:01.185Z,19.88
2017-08-04T20:02:00.865Z,19.90
2017-08-04T20:03:00.858Z,19.90
2017-08-04T20:04:00.868Z,19.91
2017-08-04T20:05:00.875Z,19.91
2017-08-04T20:06:00.872Z,19.92
2017-08-04T20:07:00.884Z,19.94
2017-08-04T20:08:00.879Z,19.97
2017-08-04T20:09:00.878Z,19.98
2017-08-04T20:10:00.880Z,19.99
2017-08-04T20:11:00.887Z,20.01
2017-08-04T20:12:00.887Z,20.04
2017-08-04T20:13:00.893Z,20.08
2017-08-04T20:14:00.894Z,20.10
2017-08-04T20:15:00.917Z,20.13
2017-08-04T20:16:00.902Z,20.14
2017-08-04T20:17:00.955Z,20.16
2017-08-04T20:18:00.910Z,20.18
2017-08-04T20:19:00.913Z,20.21
2017-08-04T20:20:01.036Z,20.23
2017-08-04T20:21:01.183Z,20.25
2017-08-04T20:22:00.919Z,20.25
2017-08-04T20:23:00.921Z,20.25
2017-08-04T20:24:05.007Z,20.23
2017-08-04T20:25:00.940Z,20.23
2017-08-04T20:26:00.931Z,20.21
2017-08-04T20:27:00.935Z,20.20
2017-08-04T20:28:00.936Z,20.18
2017-08-04T20:29:00.941Z,20.17
2017-08-04T20:30:00.937Z,20.16
2017-08-04T20:31:00.949Z,20.14
2017-08-04T20:32:00.946Z,20.15
2017-08-04T20:33:00.948Z,20.14
2017-08-04T20:34:00.952Z,20.17
2017-08-04T20:35:00.953Z,20.20
2017-08-04T20:36:01.044Z,20.20
2017-08-04T20:37:01.010Z,20.23
2017-08-04T20:38:01.023Z,20.22
2017-08-04T20:39:00.971Z,20.21
2017-08-04T20:40:00.973Z,20.23
2017-08-04T20:41:01.237Z,20.22
2017-08-04T20:42:01.507Z,20.22
2017-08-04T20:43:00.996Z,20.19
2017-08-04T20:44:00.977Z,20.17
2017-08-04T20:45:00.981Z,20.16
2017-08-04T20:46:01.023Z,20.15
2017-08-04T20:47:00.986Z,20.16
2017-08-04T20:48:00.986Z,20.16
2017-08-04T20:49:00.994Z,20.17
2017-08-04T20:50:01.003Z,20.17
2017-08-04T20:51:00.996Z,20.17
2017-08-04T20:52:01.005Z,20.17
2017-08-04T20:53:01.077Z,20.15
2017-08-04T20:54:01.007Z,20.13
2017-08-04T20:55:01.010Z,20.10
2017-08-04T20:56:01.022Z,20.09
2017-08-04T20:57:01.063Z,20.06
2017-08-04T20:58:01.024Z,20.04
2017-08-04T20:59:01.021Z,20.00
2017-08-04T21:00:01.027Z,19.97
2017-08-04T21:01:01.031Z,19.94
2017-08-04T21:02:01.031Z,19.90
2017-08-04T21:03:01.046Z,19.87
2017-08-04T21:04:01.043Z,19.85
2017-08-04T21:05:01.039Z,19.81
2017-08-04T21:06:01.041Z,19.79
2017-08-04T21:07:01.055Z,19.76
2017-08-04T21:08:01.049Z,19.73
2017-08-04T21:09:01.050Z,19.71
2017-08-04T21:10:01.059Z,19.71
2017-08-04T21:11:01.083Z,19.68
2017-08-04T21:12:01.068Z,19.66
2017-08-04T21:13:01.058Z,19.63
2017-08-04T21:14:01.069Z,19.62
2017-08-04T21:15:01.067Z,19.60
2017-08-04T21:16:01.075Z,19.57
2017-08-04T21:17:01.074Z,19.53
2017-08-04T21:18:01.076Z,19.50
2017-08-04T21:19:01.076Z,19.49
2017-08-04T21:20:01.082Z,19.46
2017-08-04T21:21:01.084Z,19.46
2017-08-04T21:22:01.087Z,19.44
2017-08-04T21:23:01.093Z,19.42
2017-08-04T21:24:01.092Z,19.44
2017-08-04T21:25:01.097Z,19.45
2017-08-04T21:26:01.104Z,19.45
2017-08-04T21:27:01.107Z,19.47
2017-08-04T21:28:01.105Z,19.48
2017-08-04T21:29:01.110Z,19.50
2017-08-04T21:30:01.116Z,19.50
2017-08-04T21:31:01.114Z,19.48
2017-08-04T21:32:01.132Z,19.48
2017-08-04T21:33:01.118Z,19.49
2017-08-04T21:34:01.121Z,19.50
2017-08-04T21:35:01.120Z,19.51
2017-08-04T21:36:01.130Z,19.53
2017-08-04T21:37:01.138Z,19.53
2017-08-04T21:38:01.128Z,19.53
2017-08-04T21:39:01.149Z,19.52
2017-08-04T21:40:01.137Z,19.51
2017-08-04T21:41:01.140Z,19.50
2017-08-04T21:42:01.146Z,19.49
2017-08-04T21:43:01.164Z,19.46
2017-08-04T21:44:01.151Z,19.44
2017-08-04T21:45:01.177Z,19.42
2017-08-04T21:46:01.185Z,19.41
2017-08-04T21:47:01.159Z,19.41
2017-08-04T21:48:01.163Z,19.40
2017-08-04T21:49:01.203Z,19.37
2017-08-04T21:50:01.169Z,19.35
2017-08-04T21:51:01.168Z,19.31
2017-08-04T21:52:01.177Z,19.30
2017-08-04T21:53:01.174Z,19.26
2017-08-04T21:54:01.179Z,19.23
2017-08-04T21:55:01.183Z,19.19
2017-08-04T21:56:01.188Z,19.17
2017-08-04T21:57:01.182Z,19.15
2017-08-04T21:58:01.190Z,19.16
2017-08-04T21:59:01.198Z,19.17
2017-08-04T22:00:01.192Z,19.14
2017-08-04T22:01:01.197Z,19.12
2017-08-04T22:02:01.207Z,19.12
2017-08-04T22:03:01.214Z,19.14
2017-08-04T22:04:01.205Z,19.11
2017-08-04T22:05:01.213Z,19.08
2017-08-04T22:06:01.230Z,19.08
2017-08-04T22:07:01.214Z,19.06
2017-08-04T22:08:01.220Z,19.05
2017-08-04T22:09:01.221Z,19.07
2017-08-04T22:10:01.222Z,19.06
2017-08-04T22:11:01.226Z,19.08
2017-08-04T22:12:01.238Z,19.08
2017-08-04T22:13:01.232Z,19.11
2017-08-04T22:14:01.240Z,19.13
2017-08-04T22:15:01.240Z,19.17
2017-08-04T22:16:01.238Z,19.18
2017-08-04T22:17:01.245Z,19.18
2017-08-04T22:18:01.250Z,19.19
2017-08-04T22:19:01.252Z,19.21
2017-08-04T22:20:01.252Z,19.23
2017-08-04T22:21:01.255Z,19.27
2017-08-04T22:22:01.262Z,19.28
2017-08-04T22:23:01.262Z,19.29
2017-08-04T22:24:01.263Z,19.28
2017-08-04T22:25:01.267Z,19.29
2017-08-04T22:26:01.285Z,19.30
2017-08-04T22:27:01.272Z,19.25
2017-08-04T22:28:01.277Z,19.22
2017-08-04T22:29:01.275Z,19.21
2017-08-04T22:30:01.280Z,19.18
2017-08-04T22:31:01.284Z,19.13
2017-08-04T22:32:01.291Z,19.08
2017-08-04T22:33:01.291Z,19.03
2017-08-04T22:34:01.290Z,19.01
2017-08-04T22:35:01.298Z,18.99
2017-08-04T22:36:01.326Z,19.00
2017-08-04T22:37:01.302Z,18.98
2017-08-04T22:38:01.303Z,18.95
2017-08-04T22:39:01.310Z,18.94
2017-08-04T22:40:01.310Z,18.91
2017-08-04T22:41:01.311Z,18.93
2017-08-04T22:42:01.384Z,18.91
2017-08-04T22:43:01.314Z,18.91
2017-08-04T22:44:01.318Z,18.90
2017-08-04T22:45:01.321Z,18.86
2017-08-04T22:46:01.327Z,18.82
2017-08-04T22:47:01.329Z,18.77
2017-08-04T22:48:01.341Z,18.76
2017-08-04T22:49:01.409Z,18.74
2017-08-04T22:50:01.338Z,18.72
2017-08-04T22:51:01.344Z,18.73
2017-08-04T22:52:01.345Z,18.74
2017-08-04T22:53:01.345Z,18.73
2017-08-04T22:54:01.352Z,18.72
2017-08-04T22:55:01.353Z,18.67
2017-08-04T22:56:01.353Z,18.64
2017-08-04T22:57:01.353Z,18.64
2017-08-04T22:58:01.358Z,18.62
2017-08-04T22:59:01.374Z,18.58
2017-08-04T23:00:01.367Z,18.56
2017-08-04T23:01:01.376Z,18.53
2017-08-04T23:02:01.369Z,18.50
2017-08-04T23:03:01.372Z,18.48
2017-08-04T23:04:01.375Z,18.44
2017-08-04T23:05:01.380Z,18.42
2017-08-04T23:06:01.382Z,18.43
2017-08-04T23:07:01.391Z,18.42
2017-08-04T23:08:01.388Z,18.42
2017-08-04T23:09:01.390Z,18.40
2017-08-04T23:10:01.390Z,18.38
2017-08-04T23:11:01.397Z,18.38
2017-08-04T23:12:01.399Z,18.37
2017-08-04T23:13:01.407Z,18.37
2017-08-04T23:14:01.406Z,18.37
2017-08-04T23:15:01.412Z,18.36
2017-08-04T23:16:01.412Z,18.36
2017-08-04T23:17:01.417Z,18.35
2017-08-04T23:18:01.418Z,18.33
2017-08-04T23:19:01.416Z,18.32
2017-08-04T23:20:01.420Z,18.31
2017-08-04T23:21:01.424Z,18.29
2017-08-04T23:22:01.428Z,18.30
2017-08-04T23:23:01.435Z,18.26
2017-08-04T23:24:01.437Z,18.24
2017-08-04T23:25:01.457Z,18.22
2017-08-04T23:26:01.441Z,18.22
2017-08-04T23:27:01.440Z,18.21
2017-08-04T23:28:01.444Z,18.21
2017-08-04T23:29:01.449Z,18.22
2017-08-04T23:30:01.458Z,18.20
2017-08-04T23:31:01.455Z,18.17
2017-08-04T23:32:01.456Z,18.18